Time;durP1;ratioP1;P1;durP2;ratioP2;P2;SDS_P1;SDS_P2;PMS_P1;PMS_P2;Temp;Humidity;BMP_temperature;BMP_pressure;BME280_temperature;BME280_humidity;BME280_pressure;Samples;Min_cycle;Max_cycle;Signal;HPM_P1;HPM_P2
2022/05/28 00:01:33;;;;;;;22.40;21.40;;;15.10;46.70;;;;;;5011040;28;20182;-81
2022/05/28 00:03:59;;;;;;;22.07;20.87;;;15.00;47.10;;;;;;5009559;28;20211;-81
2022/05/28 00:06:28;;;;;;;22.50;21.30;;;15.00;47.80;;;;;;5010051;28;20427;-81
2022/05/28 00:08:56;;;;;;;22.73;21.53;;;14.90;49.30;;;;;;5009223;28;20505;-82
2022/05/28 00:11:32;;;;;;;22.93;21.80;;;14.80;50.50;;;;;;5009409;28;20781;-82
2022/05/28 00:13:58;;;;;;;22.50;21.60;;;14.70;51.40;;;;;;5012195;28;20423;-82
2022/05/28 00:16:24;;;;;;;23.27;22.17;;;14.70;52.60;;;;;;5012293;28;21018;-81
2022/05/28 00:18:52;;;;;;;24.37;23.00;;;14.60;52.50;;;;;;5010169;28;20591;-82
2022/05/28 00:21:18;;;;;;;22.00;20.80;;;14.60;51.60;;;;;;5011733;28;20507;-82
2022/05/28 00:23:47;;;;;;;23.47;21.80;;;14.60;52.60;;;;;;5010793;28;20948;-82
2022/05/28 00:26:13;;;;;;;22.33;21.23;;;14.60;53.10;;;;;;5010032;28;20619;-82
2022/05/28 00:28:39;;;;;;;23.33;22.13;;;14.70;53.40;;;;;;5009930;28;20762;-82
2022/05/28 00:31:05;;;;;;;20.77;19.87;;;14.60;52.60;;;;;;5010096;28;20435;-82
2022/05/28 00:33:31;;;;;;;22.17;20.97;;;14.60;53.70;;;;;;5012158;28;20653;-83
2022/05/28 00:36:00;;;;;;;22.30;21.40;;;14.50;53.90;;;;;;5009781;28;20550;-82
2022/05/28 00:38:27;;;;;;;21.97;20.97;;;14.40;54.10;;;;;;5008604;28;20185;-82
2022/05/28 00:40:58;;;;;;;22.70;21.40;;;14.30;56.30;;;;;;5009362;28;20417;-82
2022/05/28 00:43:25;;;;;;;23.00;21.80;;;14.20;57.10;;;;;;5009207;28;20417;-83
2022/05/28 00:45:57;;;;;;;22.50;21.50;;;14.10;57.70;;;;;;5009123;28;20459;-83
2022/05/28 00:48:29;;;;;;;23.00;21.57;;;14.10;57.70;;;;;;5008657;28;20422;-82
2022/05/28 00:50:57;;;;;;;22.40;21.20;;;14.00;58.50;;;;;;5009050;28;20432;-83
2022/05/28 00:53:23;;;;;;;23.27;21.77;;;14.00;59.70;;;;;;5010006;28;20439;-83
2022/05/28 00:55:49;;;;;;;21.50;20.50;;;14.10;59.60;;;;;;5007507;28;20543;-83
2022/05/28 00:58:15;;;;;;;22.03;20.40;;;14.10;59.90;;;;;;5008990;28;20456;-83
2022/05/28 01:00:42;;;;;;;22.50;21.03;;;14.10;59.40;;;;;;5007403;28;20420;-84
2022/05/28 01:03:10;;;;;;;23.20;22.07;;;14.00;58.50;;;;;;5008537;28;20185;-82
2022/05/28 01:06:01;;;;;;;21.83;20.90;;;14.00;57.30;;;;;;5007893;28;20428;-82
2022/05/28 01:08:54;;;;;;;22.33;21.33;;;13.90;59.00;;;;;;5008587;28;20431;-82
2022/05/28 01:11:29;;;;;;;21.37;20.47;;;13.90;59.50;;;;;;5010500;28;20842;-82
2022/05/28 01:14:13;;;;;;;21.63;20.73;;;13.90;59.70;;;;;;5008358;28;20428;-82
2022/05/28 01:17:04;;;;;;;21.83;20.73;;;13.90;55.60;;;;;;5008357;28;20530;-82
2022/05/28 01:19:59;;;;;;;21.57;20.67;;;13.80;54.70;;;;;;5008327;28;20420;-81
2022/05/28 01:22:40;;;;;;;22.43;21.27;;;13.70;54.60;;;;;;5009169;28;20498;-82
2022/05/28 01:25:17;;;;;;;22.93;21.30;;;13.70;53.40;;;;;;5008116;28;20462;-82
2022/05/28 01:27:48;;;;;;;24.20;22.80;;;13.70;52.80;;;;;;5008507;28;20491;-81
2022/05/28 01:30:16;;;;;;;22.37;21.27;;;13.60;52.30;;;;;;5008533;28;20481;-83
2022/05/28 01:32:51;;;;;;;23.90;22.70;;;13.60;52.30;;;;;;5007942;28;20490;-82
2022/05/28 01:35:18;;;;;;;21.87;20.87;;;13.60;50.50;;;;;;5009154;28;20455;-82
2022/05/28 01:37:46;;;;;;;22.43;21.43;;;13.60;50.30;;;;;;5007639;28;20558;-82
2022/05/28 01:40:13;;;;;;;23.40;21.60;;;13.60;51.30;;;;;;5008639;28;20420;-82
2022/05/28 01:42:44;;;;;;;23.03;21.83;;;13.60;50.20;;;;;;5009261;28;20421;-82
2022/05/28 01:45:13;;;;;;;23.40;22.40;;;13.60;49.10;;;;;;5008467;28;20423;-84
2022/05/28 01:47:42;;;;;;;22.90;21.80;;;13.50;48.60;;;;;;5007201;28;20432;-82
2022/05/28 01:50:10;;;;;;;23.30;22.10;;;13.50;47.80;;;;;;5007705;28;20783;-81
2022/05/28 01:52:36;;;;;;;21.87;20.97;;;13.50;48.20;;;;;;5006935;28;20423;-81
2022/05/28 01:55:03;;;;;;;22.97;21.77;;;13.50;47.70;;;;;;5007558;28;20467;-82
2022/05/28 01:57:29;;;;;;;23.10;21.90;;;13.40;47.50;;;;;;5007464;28;20452;-82
2022/05/28 01:59:55;;;;;;;23.37;21.60;;;13.40;47.40;;;;;;5007703;28;20467;-82
2022/05/28 02:02:20;;;;;;;22.00;21.00;;;13.30;48.10;;;;;;5010298;28;20421;-81
2022/05/28 02:04:47;;;;;;;22.50;21.30;;;13.30;45.20;;;;;;5006051;28;20185;-82
2022/05/28 02:07:17;;;;;;;22.93;21.90;;;13.20;45.60;;;;;;5007975;28;20182;-82
2022/05/28 02:09:53;;;;;;;25.13;23.73;;;13.20;44.80;;;;;;5007398;28;20458;-81
2022/05/28 02:12:40;;;;;;;22.67;21.77;;;13.20;45.30;;;;;;5008015;28;20432;-82
2022/05/28 02:15:09;;;;;;;24.23;22.87;;;13.10;45.20;;;;;;5008196;28;20472;-82
2022/05/28 02:17:47;;;;;;;22.43;21.13;;;13.20;45.40;;;;;;5008931;28;20415;-82
2022/05/28 02:20:34;;;;;;;24.37;23.27;;;13.20;45.40;;;;;;5008854;28;20419;-82
2022/05/28 02:23:08;;;;;;;23.37;22.10;;;13.10;44.80;;;;;;5007123;28;20440;-82
2022/05/28 02:25:39;;;;;;;23.60;22.30;;;13.00;44.20;;;;;;5005423;28;20458;-83
2022/05/28 02:28:07;;;;;;;23.40;22.17;;;13.00;45.10;;;;;;5008226;28;20428;-82
2022/05/28 02:30:34;;;;;;;24.80;23.00;;;13.00;44.30;;;;;;5008133;28;20416;-81
2022/05/28 02:33:02;;;;;;;23.70;22.30;;;12.90;43.20;;;;;;5007669;28;20763;-81
2022/05/28 02:35:28;;;;;;;22.60;21.60;;;12.90;43.10;;;;;;5007164;28;20478;-82
2022/05/28 02:37:54;;;;;;;23.10;22.07;;;12.80;44.10;;;;;;5007868;28;20452;-82
2022/05/28 02:40:20;;;;;;;23.20;21.93;;;12.90;44.00;;;;;;5006674;28;20858;-82
2022/05/28 02:42:46;;;;;;;22.60;21.70;;;12.80;44.10;;;;;;5006564;28;20460;-81
2022/05/28 02:45:12;;;;;;;22.70;21.60;;;12.80;44.10;;;;;;5006332;28;20264;-82
2022/05/28 02:47:37;;;;;;;23.57;22.23;;;12.70;43.30;;;;;;5006439;28;20216;-82
2022/05/28 02:50:03;;;;;;;23.30;21.90;;;12.70;44.00;;;;;;5007334;28;20455;-82
2022/05/28 02:52:29;;;;;;;22.27;21.07;;;12.70;41.70;;;;;;5007520;28;20190;-81
2022/05/28 02:54:54;;;;;;;21.60;20.60;;;12.70;42.70;;;;;;5005752;28;20814;-82
2022/05/28 02:57:20;;;;;;;22.53;20.97;;;12.60;43.90;;;;;;5005121;28;20185;-82
2022/05/28 02:59:46;;;;;;;22.83;21.83;;;12.60;42.70;;;;;;5007592;28;20216;-82
2022/05/28 03:02:11;;;;;;;22.17;21.27;;;12.60;43.30;;;;;;5005957;28;20189;-82
2022/05/28 03:04:37;;;;;;;23.30;22.17;;;12.50;43.80;;;;;;5008231;28;20537;-82
2022/05/28 03:07:04;;;;;;;23.57;22.30;;;12.50;42.30;;;;;;5012063;28;20261;-83
2022/05/28 03:09:30;;;;;;;25.57;23.90;;;12.40;43.00;;;;;;5009671;28;20459;-82
2022/05/28 03:11:55;;;;;;;23.53;22.33;;;12.40;42.90;;;;;;5011203;28;20452;-82
2022/05/28 03:14:21;;;;;;;23.83;22.40;;;12.40;42.10;;;;;;5009371;28;20203;-83
2022/05/28 03:16:47;;;;;;;22.70;21.60;;;12.40;42.80;;;;;;5010563;28;20181;-82
2022/05/28 03:19:13;;;;;;;21.77;20.77;;;12.40;40.90;;;;;;5010477;28;20416;-82
2022/05/28 03:21:39;;;;;;;22.63;21.43;;;12.40;40.80;;;;;;5009400;28;20416;-82
2022/05/28 03:24:07;;;;;;;22.40;20.90;;;12.40;40.50;;;;;;5010924;28;20515;-83
2022/05/28 03:26:33;;;;;;;21.33;20.17;;;12.40;40.40;;;;;;5009412;28;20443;-82
2022/05/28 03:28:59;;;;;;;22.67;21.10;;;12.40;40.60;;;;;;5009816;28;20766;-82
2022/05/28 03:31:26;;;;;;;22.27;21.33;;;12.20;41.00;;;;;;5008876;28;20519;-83
2022/05/28 03:33:52;;;;;;;22.70;21.60;;;12.30;41.50;;;;;;5009542;28;20175;-83
2022/05/28 03:36:19;;;;;;;22.87;21.73;;;12.30;41.70;;;;;;5009795;28;20471;-82
2022/05/28 03:38:45;;;;;;;22.77;21.10;;;12.20;40.80;;;;;;5009350;28;20173;-82
2022/05/28 03:41:11;;;;;;;22.13;21.03;;;12.20;40.50;;;;;;5010630;28;20427;-82
2022/05/28 03:43:37;;;;;;;22.03;21.03;;;12.20;41.20;;;;;;5011040;28;20551;-82
2022/05/28 03:46:03;;;;;;;21.70;20.60;;;12.20;41.10;;;;;;5008797;28;20416;-83
2022/05/28 03:48:32;;;;;;;22.07;20.67;;;12.20;42.30;;;;;;5008037;28;20180;-82
2022/05/28 03:50:58;;;;;;;21.70;20.80;;;12.10;41.10;;;;;;5008692;28;20435;-82
2022/05/28 03:53:26;;;;;;;20.93;19.93;;;12.20;41.20;;;;;;5006792;28;20421;-83
2022/05/28 03:55:52;;;;;;;23.23;21.80;;;12.10;41.70;;;;;;5007768;28;20212;-84
2022/05/28 03:58:17;;;;;;;21.47;20.27;;;12.10;41.20;;;;;;5006336;28;20432;-84
2022/05/28 04:00:43;;;;;;;23.70;22.07;;;12.00;41.40;;;;;;5006763;28;20256;-84
2022/05/28 04:03:09;;;;;;;21.83;20.80;;;12.00;41.10;;;;;;5007811;28;20182;-84
2022/05/28 04:05:39;;;;;;;22.93;21.70;;;11.90;42.20;;;;;;5007852;28;20192;-84
2022/05/28 04:08:06;;;;;;;22.33;20.93;;;11.90;41.90;;;;;;5006093;28;20431;-83
2022/05/28 04:10:31;;;;;;;21.00;20.03;;;11.90;42.90;;;;;;5006883;28;20416;-84
2022/05/28 04:12:57;;;;;;;22.30;21.40;;;11.90;43.30;;;;;;5007050;28;20419;-85
2022/05/28 04:15:24;;;;;;;23.43;21.90;;;11.90;42.20;;;;;;5005133;28;20704;-84
2022/05/28 04:17:50;;;;;;;22.63;21.63;;;11.90;42.40;;;;;;5004139;28;20552;-83
2022/05/28 04:20:16;;;;;;;23.33;22.07;;;11.90;43.30;;;;;;5007115;28;20417;-82
2022/05/28 04:22:42;;;;;;;21.57;20.60;;;11.80;41.70;;;;;;5006615;28;20903;-84
2022/05/28 04:25:08;;;;;;;23.77;21.97;;;11.90;42.10;;;;;;5006164;28;20455;-84
2022/05/28 04:27:34;;;;;;;22.87;21.87;;;11.90;42.80;;;;;;5007789;28;20293;-83
2022/05/28 04:30:00;;;;;;;22.50;21.33;;;11.90;42.40;;;;;;5006202;28;20507;-84
2022/05/28 04:32:26;;;;;;;22.23;21.33;;;11.90;42.40;;;;;;5006706;28;20181;-82
2022/05/28 04:34:51;;;;;;;22.37;21.47;;;11.90;43.30;;;;;;5007470;28;20456;-83
2022/05/28 04:37:20;;;;;;;22.00;20.90;;;11.90;41.90;;;;;;5007504;28;20169;-84
2022/05/28 04:39:46;;;;;;;23.30;22.20;;;11.90;41.80;;;;;;5004056;28;20180;-82
2022/05/28 04:42:14;;;;;;;22.20;21.13;;;11.90;40.70;;;;;;5009702;28;20771;-84
2022/05/28 04:44:40;;;;;;;21.93;20.77;;;11.80;41.30;;;;;;5005490;28;20209;-84
2022/05/28 04:47:05;;;;;;;23.60;22.23;;;11.70;41.00;;;;;;5006029;28;20455;-83
2022/05/28 04:49:31;;;;;;;22.20;21.30;;;11.80;41.70;;;;;;5006111;28;20714;-84
2022/05/28 04:51:57;;;;;;;22.50;21.17;;;11.70;41.10;;;;;;5006230;28;20590;-84
2022/05/28 04:54:22;;;;;;;22.90;21.20;;;11.70;41.50;;;;;;5005913;28;20649;-85
2022/05/28 04:56:48;;;;;;;22.67;21.67;;;11.80;40.80;;;;;;5005263;28;20354;-83
2022/05/28 04:59:14;;;;;;;21.00;20.03;;;11.90;40.90;;;;;;5005333;28;20193;-84
2022/05/28 05:01:39;;;;;;;22.10;21.00;;;11.90;41.70;;;;;;5005380;28;20562;-83
2022/05/28 05:04:05;;;;;;;22.47;21.53;;;11.90;42.10;;;;;;5004696;28;20535;-83
2022/05/28 05:06:31;;;;;;;23.80;22.50;;;11.90;41.20;;;;;;5004530;28;20203;-85
2022/05/28 05:08:57;;;;;;;23.03;21.83;;;11.90;41.60;;;;;;5006039;28;20182;-84
2022/05/28 05:11:23;;;;;;;23.40;22.30;;;12.00;40.70;;;;;;5005330;28;20228;-84
2022/05/28 05:13:48;;;;;;;22.00;21.10;;;11.90;41.40;;;;;;5006031;28;20416;-84
2022/05/28 05:16:16;;;;;;;23.13;22.13;;;12.00;41.10;;;;;;5004686;28;20232;-85
2022/05/28 05:18:42;;;;;;;24.30;22.63;;;12.10;41.40;;;;;;5004426;28;20567;-84
2022/05/28 05:21:11;;;;;;;22.80;21.60;;;12.10;41.60;;;;;;5006949;28;20416;-84
2022/05/28 05:23:40;;;;;;;23.70;22.50;;;12.10;41.20;;;;;;5006617;28;20863;-84
2022/05/28 05:26:15;;;;;;;24.30;23.17;;;12.10;41.40;;;;;;5006375;28;20423;-84
2022/05/28 05:28:41;;;;;;;22.87;21.87;;;12.10;42.10;;;;;;5004035;28;20561;-83
2022/05/28 05:31:07;;;;;;;23.70;22.20;;;12.20;42.00;;;;;;5006321;28;20757;-83
2022/05/28 05:33:32;;;;;;;22.77;21.30;;;12.20;41.70;;;;;;5006093;28;20428;-83
2022/05/28 05:35:58;;;;;;;24.40;23.30;;;12.20;42.10;;;;;;5005613;28;20228;-85
2022/05/28 05:38:23;;;;;;;22.53;21.63;;;12.20;41.30;;;;;;5004762;28;20656;-84
2022/05/28 05:40:51;;;;;;;23.10;22.00;;;12.10;42.00;;;;;;5006527;28;20492;-84
2022/05/28 05:43:18;;;;;;;25.00;23.30;;;12.20;43.10;;;;;;5005254;28;20165;-84
2022/05/28 05:45:57;;;;;;;22.70;21.67;;;12.30;41.60;;;;;;5006595;28;20435;-84
2022/05/28 05:48:24;;;;;;;23.23;21.77;;;12.30;42.30;;;;;;5005249;28;20456;-84
2022/05/28 05:50:50;;;;;;;22.20;21.13;;;12.40;40.60;;;;;;5006739;28;20447;-84
2022/05/28 05:53:17;;;;;;;22.77;21.87;;;12.40;40.70;;;;;;5005694;28;20424;-84
2022/05/28 05:55:43;;;;;;;22.70;21.70;;;12.50;38.50;;;;;;5005482;28;20464;-85
2022/05/28 05:58:10;;;;;;;23.90;22.50;;;12.50;39.20;;;;;;5006461;28;20439;-84
2022/05/28 06:00:36;;;;;;;22.43;21.43;;;12.50;39.40;;;;;;5006650;28;20494;-84
2022/05/28 06:03:03;;;;;;;22.00;21.00;;;12.60;40.20;;;;;;5006319;28;20498;-84
2022/05/28 06:05:28;;;;;;;23.93;22.10;;;12.60;39.00;;;;;;5004939;28;20508;-83
2022/05/28 06:07:54;;;;;;;22.47;21.33;;;12.60;39.40;;;;;;5006312;28;20503;-83
2022/05/28 06:10:20;;;;;;;23.30;21.80;;;12.70;37.90;;;;;;5007818;28;20268;-84
2022/05/28 06:12:45;;;;;;;23.03;22.13;;;12.70;38.20;;;;;;5005857;28;20181;-84
2022/05/28 06:15:12;;;;;;;21.60;20.80;;;12.70;38.80;;;;;;5004728;28;20208;-84
2022/05/28 06:17:38;;;;;;;23.17;22.20;;;12.70;38.10;;;;;;5004670;28;20177;-84
2022/05/28 06:20:06;;;;;;;21.77;20.60;;;12.80;37.10;;;;;;5006596;28;20419;-84
2022/05/28 06:22:32;;;;;;;23.17;21.67;;;12.80;36.30;;;;;;5006475;28;20413;-83
2022/05/28 06:24:58;;;;;;;21.80;21.00;;;12.70;36.40;;;;;;5005319;28;20426;-84
2022/05/28 06:27:24;;;;;;;21.70;20.53;;;12.80;36.20;;;;;;5005017;28;20925;-83
2022/05/28 06:29:50;;;;;;;22.70;21.60;;;12.80;35.20;;;;;;5007265;28;20511;-84
2022/05/28 06:32:16;;;;;;;20.20;19.20;;;12.90;35.40;;;;;;5006716;28;20227;-85
2022/05/28 06:34:42;;;;;;;21.43;20.00;;;12.80;33.40;;;;;;5006055;28;20424;-84
2022/05/28 06:37:09;;;;;;;21.60;20.57;;;12.90;34.90;;;;;;5006685;28;20426;-83
2022/05/28 06:39:36;;;;;;;21.87;20.67;;;12.90;32.70;;;;;;5007364;28;20223;-84
2022/05/28 06:42:06;;;;;;;21.60;20.60;;;12.90;31.00;;;;;;5012567;28;20803;-84
2022/05/28 06:44:32;;;;;;;21.93;20.57;;;12.80;31.70;;;;;;5012136;28;20416;-83
2022/05/28 06:46:58;;;;;;;21.30;20.50;;;12.90;30.90;;;;;;5011814;28;20435;-83
2022/05/28 06:49:24;;;;;;;20.57;19.67;;;12.90;31.30;;;;;;5010296;28;20224;-85
2022/05/28 06:51:51;;;;;;;21.67;20.87;;;12.90;31.90;;;;;;5010674;28;20416;-85
2022/05/28 06:54:17;;;;;;;21.80;20.50;;;13.00;31.20;;;;;;5010215;28;20260;-84
2022/05/28 06:56:43;;;;;;;21.13;20.23;;;13.00;31.10;;;;;;5009331;28;20467;-84
2022/05/28 06:59:09;;;;;;;19.70;19.00;;;13.10;31.10;;;;;;5010729;28;20851;-85
2022/05/28 07:01:36;;;;;;;22.10;20.80;;;13.20;31.10;;;;;;5009509;28;20474;-84
2022/05/28 07:04:01;;;;;;;21.40;20.17;;;13.10;30.40;;;;;;5011925;28;20830;-84
2022/05/28 07:06:29;;;;;;;21.80;20.77;;;13.10;31.00;;;;;;5010970;28;20455;-84
2022/05/28 07:08:55;;;;;;;21.10;20.23;;;13.20;30.10;;;;;;5010018;28;20574;-85
2022/05/28 07:11:21;;;;;;;20.57;19.60;;;13.10;30.00;;;;;;5009977;28;20519;-84
2022/05/28 07:13:46;;;;;;;20.30;19.43;;;13.20;30.10;;;;;;5010644;28;20435;-84
2022/05/28 07:16:12;;;;;;;19.57;18.87;;;13.20;29.80;;;;;;5011510;28;20827;-84
2022/05/28 07:18:39;;;;;;;19.57;18.87;;;13.30;28.90;;;;;;5010859;28;20180;-85
2022/05/28 07:21:06;;;;;;;21.00;19.87;;;13.30;29.70;;;;;;5011844;28;20466;-84
2022/05/28 07:23:32;;;;;;;21.70;20.50;;;13.40;29.70;;;;;;5011248;28;20424;-85
2022/05/28 07:26:11;;;;;;;20.83;20.03;;;13.40;29.70;;;;;;5010407;28;20434;-84
2022/05/28 07:28:41;;;;;;;20.10;18.83;;;13.40;29.10;;;;;;5010372;28;20813;-85
2022/05/28 07:31:17;;;;;;;19.50;18.80;;;13.50;29.30;;;;;;5011835;28;20455;-84
2022/05/28 07:33:44;;;;;;;21.37;20.50;;;13.40;30.00;;;;;;5010837;28;20428;-84
2022/05/28 07:36:14;;;;;;;19.60;18.87;;;13.50;30.10;;;;;;5009403;28;20861;-84
2022/05/28 07:38:41;;;;;;;20.97;19.90;;;13.50;29.60;;;;;;5010734;28;20412;-84
2022/05/28 07:41:11;;;;;;;18.87;17.97;;;13.50;30.40;;;;;;5010690;28;20504;-84
2022/05/28 07:43:37;;;;;;;19.43;18.33;;;13.50;29.60;;;;;;5011346;28;20431;-83
2022/05/28 07:46:03;;;;;;;19.57;18.73;;;13.60;29.80;;;;;;5010483;28;20420;-84
2022/05/28 07:48:29;;;;;;;19.50;18.80;;;13.60;30.50;;;;;;5010918;28;20408;-84
2022/05/28 07:50:55;;;;;;;20.10;19.20;;;13.70;29.10;;;;;;5010237;28;20790;-83
2022/05/28 07:53:21;;;;;;;18.40;17.70;;;13.70;28.30;;;;;;5012502;28;20413;-85
2022/05/28 07:55:46;;;;;;;20.13;18.83;;;13.70;26.50;;;;;;5009767;28;20231;-83
2022/05/28 07:58:19;;;;;;;19.30;18.60;;;13.70;26.20;;;;;;5011911;28;20658;-84
2022/05/28 08:00:47;;;;;;;18.80;18.00;;;13.60;26.50;;;;;;5028599;28;20173;-84
2022/05/28 08:03:14;;;;;;;19.10;18.13;;;13.80;27.50;;;;;;5011525;28;20416;-84
2022/05/28 08:05:44;;;;;;;19.10;18.40;;;14.00;27.60;;;;;;5010819;28;20927;-84
2022/05/28 08:08:10;;;;;;;18.67;17.87;;;14.00;27.90;;;;;;5011908;28;20467;-84
2022/05/28 08:10:36;;;;;;;18.57;17.83;;;14.00;27.50;;;;;;5011434;28;20447;-84
2022/05/28 08:13:07;;;;;;;18.90;17.93;;;14.10;26.40;;;;;;5010150;28;20412;-84
2022/05/28 08:15:35;;;;;;;18.53;17.70;;;14.10;26.60;;;;;;5009558;28;20470;-84
2022/05/28 08:18:02;;;;;;;18.63;17.93;;;14.00;26.10;;;;;;5011377;28;20912;-84
2022/05/28 08:23:12;;;;;;;17.90;17.13;;;14.30;27.00;;;;;;5013189;28;20408;-84
2022/05/28 08:25:39;;;;;;;18.27;17.57;;;14.30;26.50;;;;;;5010269;28;20416;-84
2022/05/28 08:28:10;;;;;;;18.07;17.27;;;14.30;27.00;;;;;;5012029;28;20416;-84
2022/05/28 08:30:38;;;;;;;18.80;17.80;;;14.30;27.20;;;;;;5010760;28;20421;-83
2022/05/28 08:33:05;;;;;;;17.93;17.23;;;14.40;26.50;;;;;;5010711;28;20428;-84
2022/05/28 08:35:30;;;;;;;18.47;17.37;;;14.40;27.10;;;;;;5010091;28;20460;-85
2022/05/28 08:37:56;;;;;;;18.17;17.50;;;14.40;27.30;;;;;;5010949;28;20412;-84
2022/05/28 08:40:25;;;;;;;18.60;17.90;;;14.40;27.50;;;;;;5011641;28;20641;-84
2022/05/28 08:42:51;;;;;;;17.60;17.00;;;14.30;27.70;;;;;;5011375;28;20470;-84
2022/05/28 08:45:17;;;;;;;18.80;18.00;;;14.30;27.70;;;;;;5010275;28;20416;-85
2022/05/28 08:47:47;;;;;;;20.13;18.90;;;14.20;27.90;;;;;;5009968;28;20440;-84
2022/05/28 08:50:14;;;;;;;18.70;17.90;;;14.30;27.50;;;;;;5012919;28;20417;-83
2022/05/28 08:52:54;;;;;;;19.73;18.27;;;14.40;27.60;;;;;;5009736;28;20420;-84
2022/05/28 08:55:24;;;;;;;19.30;17.97;;;14.50;28.20;;;;;;5010463;28;21053;-84
2022/05/28 08:58:04;;;;;;;18.60;17.90;;;14.70;27.60;;;;;;5009483;28;20467;-84
2022/05/28 09:00:50;;;;;;;20.50;19.60;;;14.80;27.80;;;;;;5010569;28;20416;-84
2022/05/28 09:03:22;;;;;;;19.33;18.53;;;14.90;28.00;;;;;;5009919;28;20746;-84
2022/05/28 09:06:14;;;;;;;19.30;18.60;;;15.00;27.40;;;;;;5010256;28;20656;-84
2022/05/28 09:08:43;;;;;;;18.90;18.20;;;15.10;27.20;;;;;;5009951;28;20452;-84
2022/05/28 09:11:37;;;;;;;18.93;18.10;;;14.90;26.50;;;;;;5011577;28;20423;-83
2022/05/28 09:14:18;;;;;;;19.23;18.33;;;14.90;27.00;;;;;;5006500;28;20456;-84
2022/05/28 09:16:45;;;;;;;18.83;18.13;;;15.10;25.90;;;;;;5010549;28;20460;-84
2022/05/28 09:19:18;;;;;;;19.57;18.67;;;15.10;26.20;;;;;;5011201;28;20750;-84
2022/05/28 09:21:45;;;;;;;18.30;17.60;;;15.20;26.80;;;;;;5010434;28;20507;-84
2022/05/28 09:24:22;;;;;;;18.60;17.60;;;15.30;26.80;;;;;;5011823;28;20412;-84
2022/05/28 09:27:03;;;;;;;18.17;17.57;;;15.40;26.30;;;;;;5009244;28;20474;-84
2022/05/28 09:29:47;;;;;;;18.20;17.40;;;15.30;27.10;;;;;;5012099;28;20459;-84
2022/05/28 09:32:51;;;;;;;18.17;17.57;;;15.40;26.80;;;;;;5011639;28;20416;-84
2022/05/28 09:35:29;;;;;;;18.70;18.10;;;15.50;26.90;;;;;;5011164;28;20460;-84
2022/05/28 09:38:04;;;;;;;19.50;18.40;;;15.50;26.40;;;;;;5011341;28;20716;-84
2022/05/28 09:40:48;;;;;;;18.40;17.70;;;15.60;26.40;;;;;;5012069;28;20788;-85
2022/05/28 09:43:38;;;;;;;19.00;18.20;;;15.70;25.60;;;;;;5011347;28;20447;-84
2022/05/28 09:46:19;;;;;;;18.20;17.47;;;15.50;26.20;;;;;;5011418;28;20419;-84
2022/05/28 09:48:47;;;;;;;18.30;17.50;;;15.50;26.90;;;;;;5011502;28;20408;-81
2022/05/28 09:51:27;;;;;;;18.63;18.03;;;15.50;26.10;;;;;;5011304;28;20415;-84
2022/05/28 09:54:23;;;;;;;18.00;17.30;;;15.50;25.30;;;;;;5011896;28;20461;-82
2022/05/28 09:57:03;;;;;;;19.00;18.17;;;15.80;25.90;;;;;;5010714;28;20471;-82
2022/05/28 09:59:49;;;;;;;17.50;16.90;;;15.70;25.70;;;;;;5010727;28;20432;-82
2022/05/28 10:02:40;;;;;;;18.90;17.90;;;15.60;25.00;;;;;;5011540;28;20793;-82
2022/05/28 10:05:14;;;;;;;19.67;18.20;;;15.60;25.30;;;;;;5011056;28;20420;-82
2022/05/28 10:07:52;;;;;;;18.00;17.40;;;15.60;24.80;;;;;;5011374;28;20534;-82
2022/05/28 10:10:29;;;;;;;18.30;17.53;;;15.80;24.60;;;;;;5012247;28;20424;-82
2022/05/28 10:13:17;;;;;;;18.10;17.27;;;15.90;24.60;;;;;;5010784;28;20411;-82
2022/05/28 10:15:52;;;;;;;19.40;18.17;;;15.80;25.40;;;;;;5009216;28;20467;-82
2022/05/28 10:18:21;;;;;;;18.47;17.73;;;15.90;24.20;;;;;;5012195;28;20429;-82
2022/05/28 10:21:04;;;;;;;19.00;18.10;;;16.00;24.90;;;;;;5010272;28;20511;-82
2022/05/28 10:23:29;;;;;;;18.70;17.90;;;16.20;23.90;;;;;;5010947;28;20451;-83
2022/05/28 10:25:55;;;;;;;18.67;17.97;;;16.20;23.70;;;;;;5010636;28;20444;-82
2022/05/28 10:28:40;;;;;;;18.13;17.30;;;16.10;24.00;;;;;;5011442;28;20241;-82
2022/05/28 10:31:37;;;;;;;19.43;18.50;;;16.10;24.00;;;;;;5011032;28;20612;-82
2022/05/28 10:34:04;;;;;;;18.30;17.63;;;16.10;24.50;;;;;;5004855;28;20423;-81
2022/05/28 10:36:32;;;;;;;18.53;17.63;;;16.10;24.20;;;;;;5009549;28;20463;-83
2022/05/28 10:39:17;;;;;;;19.60;18.70;;;16.10;24.40;;;;;;5009877;28;20455;-82
2022/05/28 10:41:44;;;;;;;19.60;18.40;;;16.10;24.90;;;;;;5010416;28;20741;-83
2022/05/28 10:44:13;;;;;;;18.07;17.00;;;15.90;24.70;;;;;;5008795;28;20574;-83
2022/05/28 10:46:57;;;;;;;18.23;17.33;;;15.80;24.80;;;;;;5009779;28;20946;-83
2022/05/28 10:49:50;;;;;;;17.60;16.83;;;15.80;25.40;;;;;;5010275;28;21063;-83
2022/05/28 10:52:25;;;;;;;18.03;17.23;;;15.80;25.60;;;;;;5012201;28;20438;-81
2022/05/28 10:55:07;;;;;;;17.87;17.13;;;15.80;26.50;;;;;;5020902;28;20417;-81
2022/05/28 10:58:04;;;;;;;17.47;16.87;;;15.80;25.60;;;;;;5004301;28;20447;-82
2022/05/28 11:00:58;;;;;;;17.77;16.77;;;15.90;24.10;;;;;;5013963;28;20420;-81
2022/05/28 11:03:47;;;;;;;18.20;17.00;;;16.10;23.40;;;;;;5007930;28;20418;-80
2022/05/28 11:06:25;;;;;;;16.93;16.20;;;15.90;22.90;;;;;;4991251;28;20943;-81
2022/05/28 11:09:16;;;;;;;17.90;17.00;;;16.10;23.00;;;;;;5010984;28;20419;-82
2022/05/28 11:12:19;;;;;;;17.70;16.70;;;16.20;24.70;;;;;;5033880;28;20443;-82
2022/05/28 11:15:00;;;;;;;16.83;16.20;;;16.30;23.70;;;;;;5024198;28;20919;-81
2022/05/28 11:17:53;;;;;;;17.30;16.70;;;16.40;22.20;;;;;;5025706;28;20411;-81
2022/05/28 11:21:04;;;;;;;18.17;17.37;;;16.30;22.90;;;;;;5023105;28;20428;-81
2022/05/28 11:23:33;;;;;;;18.13;17.43;;;16.50;23.00;;;;;;4995718;28;20420;-81
2022/05/28 11:26:25;;;;;;;18.30;17.50;;;16.60;22.60;;;;;;5021677;28;20507;-81
2022/05/28 11:29:06;;;;;;;18.23;17.53;;;16.50;22.80;;;;;;5017983;28;20423;-80
2022/05/28 11:31:42;;;;;;;17.40;16.60;;;16.50;20.90;;;;;;5038383;28;20494;-81
2022/05/28 11:34:22;;;;;;;17.93;17.10;;;16.50;21.80;;;;;;5040106;28;20423;-81
2022/05/28 11:37:01;;;;;;;17.23;16.63;;;16.60;21.10;;;;;;5020070;28;20529;-82
2022/05/28 11:39:55;;;;;;;17.93;17.13;;;16.60;20.30;;;;;;5022955;28;20507;-82
2022/05/28 11:42:23;;;;;;;17.50;16.70;;;16.50;20.50;;;;;;5024116;28;20791;-81
2022/05/28 11:44:57;;;;;;;16.33;15.73;;;16.60;22.00;;;;;;5025575;28;20427;-82
2022/05/28 11:47:46;;;;;;;16.90;16.30;;;16.60;21.20;;;;;;5029860;28;20901;-82
2022/05/28 11:53:41;;;;;;;17.00;16.30;;;16.50;21.30;;;;;;5022141;28;20408;-83
2022/05/28 11:56:22;;;;;;;16.43;15.83;;;16.60;20.20;;;;;;5013554;28;20910;-83
2022/05/28 11:58:55;;;;;;;17.10;16.40;;;16.60;20.90;;;;;;5035458;28;20508;-82
2022/05/28 12:02:03;;;;;;;16.73;16.10;;;16.70;18.80;;;;;;5022117;28;20182;-82
2022/05/28 12:04:32;;;;;;;17.83;17.23;;;16.60;20.00;;;;;;4995772;28;20442;-83
2022/05/28 12:07:21;;;;;;;16.53;15.93;;;16.50;19.30;;;;;;5024534;28;20432;-82
2022/05/28 12:09:47;;;;;;;17.00;16.40;;;16.60;19.70;;;;;;5032121;28;20530;-83
2022/05/28 12:12:50;;;;;;;17.30;16.60;;;16.60;20.10;;;;;;5013599;28;20507;-81
2022/05/28 12:15:16;;;;;;;18.33;17.53;;;16.60;20.30;;;;;;4992095;28;20201;-82
2022/05/28 12:17:54;;;;;;;17.30;16.70;;;16.60;20.10;;;;;;5008736;28;20456;-81
2022/05/28 12:20:32;;;;;;;17.40;16.60;;;16.60;21.30;;;;;;4993153;28;20181;-81
2022/05/28 12:23:03;;;;;;;16.93;16.23;;;16.50;21.00;;;;;;5022655;28;20422;-83
2022/05/28 12:25:29;;;;;;;16.80;16.00;;;16.60;21.60;;;;;;5030898;28;20454;-82
2022/05/28 12:27:55;;;;;;;16.93;16.30;;;16.60;20.90;;;;;;5030020;28;20455;-82
2022/05/28 12:30:41;;;;;;;17.30;16.40;;;16.60;21.70;;;;;;5031654;28;20183;-86
2022/05/28 12:33:25;;;;;;;16.80;16.10;;;16.60;21.90;;;;;;5030584;28;20279;-86
2022/05/28 12:35:54;;;;;;;18.60;17.38;;;16.80;21.50;;;;;;5027532;28;20441;-83
2022/05/28 12:38:39;;;;;;;17.63;16.83;;;17.00;22.40;;;;;;5031441;28;20161;-80
2022/05/28 12:41:05;;;;;;;24.40;21.67;;;17.20;21.70;;;;;;5022280;28;20421;-82
2022/05/28 12:43:39;;;;;;;19.57;18.27;;;17.30;21.90;;;;;;5017248;28;20436;-84
2022/05/28 12:46:20;;;;;;;17.73;16.83;;;17.50;21.80;;;;;;5007613;28;20420;-82
2022/05/28 12:48:50;;;;;;;16.80;16.20;;;17.40;20.90;;;;;;5008444;28;20447;-83
2022/05/28 12:51:32;;;;;;;18.40;17.60;;;17.30;21.00;;;;;;5006892;28;20423;-85
2022/05/28 12:54:03;;;;;;;17.77;17.17;;;17.30;21.30;;;;;;5009839;28;20177;-85
2022/05/28 12:56:35;;;;;;;17.90;17.00;;;17.20;20.70;;;;;;5007461;28;20476;-83